createdAt,value
2019-05-29T00:00:50.109Z,17.70
2019-05-29T00:03:21.548Z,17.80
2019-05-29T00:05:52.714Z,17.70
2019-05-29T00:08:24.222Z,17.80
2019-05-29T00:10:55.570Z,17.80
2019-05-29T00:13:27.284Z,17.80
2019-05-29T00:15:58.987Z,17.80
2019-05-29T00:18:30.561Z,17.80
2019-05-29T00:21:02.546Z,17.80
2019-05-29T00:23:33.973Z,17.80
2019-05-29T00:26:06.342Z,17.90
2019-05-29T00:28:38.638Z,17.90
2019-05-29T00:31:10.007Z,17.90
2019-05-29T00:33:41.357Z,17.90
2019-05-29T00:36:12.904Z,17.90
2019-05-29T00:38:44.425Z,17.90
2019-05-29T00:41:17.061Z,17.90
2019-05-29T00:43:48.602Z,17.90
2019-05-29T00:46:20.524Z,17.90
2019-05-29T00:48:52.470Z,17.90
2019-05-29T00:51:23.932Z,17.90
2019-05-29T00:53:55.983Z,18.00
2019-05-29T00:56:27.325Z,17.90
2019-05-29T00:58:58.998Z,18.00
2019-05-29T01:01:30.473Z,18.00
2019-05-29T01:04:03.333Z,18.00
2019-05-29T01:06:35.061Z,18.10
2019-05-29T01:09:06.603Z,18.10
2019-05-29T01:11:38.221Z,18.10
2019-05-29T01:14:10.979Z,18.10
2019-05-29T01:16:42.885Z,18.10
2019-05-29T01:19:26.374Z,18.10
2019-05-29T01:21:58.068Z,18.20
2019-05-29T01:24:29.448Z,18.10
2019-05-29T01:27:00.914Z,18.20
2019-05-29T01:29:32.341Z,18.20
2019-05-29T01:32:03.914Z,18.20
2019-05-29T01:34:35.463Z,18.20
2019-05-29T01:37:07.130Z,18.20
2019-05-29T01:39:38.729Z,18.30
2019-05-29T01:42:10.360Z,18.30
2019-05-29T01:44:41.699Z,18.30
2019-05-29T01:47:13.299Z,18.30
2019-05-29T01:49:45.194Z,18.20
2019-05-29T01:52:17.579Z,18.20
2019-05-29T01:54:49.402Z,18.20
2019-05-29T01:57:21.523Z,18.20
2019-05-29T01:59:53.497Z,18.10
2019-05-29T02:02:25.140Z,18.10
2019-05-29T02:04:56.659Z,18.10
2019-05-29T02:07:30.126Z,18.10
2019-05-29T02:10:03.326Z,17.90
2019-05-29T02:12:34.726Z,17.80
2019-05-29T02:15:21.127Z,17.70
2019-05-29T02:17:40.318Z,17.50
2019-05-29T02:20:11.982Z,17.30
2019-05-29T02:22:43.359Z,17.20
2019-05-29T02:25:18.035Z,17.00
2019-05-29T02:27:50.433Z,16.90
2019-05-29T02:30:24.913Z,16.80
2019-05-29T02:32:55.752Z,16.70
2019-05-29T02:35:29.408Z,16.60
2019-05-29T02:38:00.865Z,16.50
2019-05-29T02:40:32.468Z,16.40
2019-05-29T02:43:03.986Z,16.30
2019-05-29T02:45:52.776Z,16.20
2019-05-29T02:48:08.925Z,16.10
2019-05-29T02:50:40.743Z,16.00
2019-05-29T02:53:12.264Z,16.00
2019-05-29T02:55:43.823Z,15.90
2019-05-29T02:58:15.314Z,15.80
2019-05-29T03:00:52.203Z,15.80
2019-05-29T03:03:26.333Z,15.80
2019-05-29T03:05:57.508Z,15.70
2019-05-29T03:08:30.007Z,15.60
2019-05-29T03:11:02.589Z,15.60
2019-05-29T03:13:34.330Z,15.60
2019-05-29T03:16:11.367Z,15.50
2019-05-29T03:18:39.544Z,15.40
2019-05-29T03:21:11.275Z,15.40
2019-05-29T03:23:42.824Z,15.40
2019-05-29T03:26:14.318Z,15.40
2019-05-29T03:28:46.026Z,15.30
2019-05-29T03:31:17.533Z,15.30
2019-05-29T03:33:50.872Z,15.20
2019-05-29T03:36:22.432Z,15.10
2019-05-29T03:38:53.895Z,15.10
2019-05-29T03:41:26.280Z,15.00
2019-05-29T03:43:57.734Z,15.00
2019-05-29T03:46:34.214Z,14.90
2019-05-29T03:49:02.206Z,14.90
2019-05-29T03:51:35.036Z,14.80
2019-05-29T03:54:06.595Z,14.80
2019-05-29T03:56:38.932Z,14.80
2019-05-29T03:59:10.946Z,14.80
2019-05-29T04:01:42.561Z,14.80
2019-05-29T04:04:13.844Z,14.80
2019-05-29T04:06:47.401Z,14.80
2019-05-29T04:09:18.400Z,14.80
2019-05-29T04:11:50.396Z,14.80
2019-05-29T04:14:21.933Z,14.80
2019-05-29T04:16:59.721Z,14.80
2019-05-29T04:19:29.988Z,14.70
2019-05-29T04:22:05.279Z,14.60
2019-05-29T04:24:38.395Z,14.60
2019-05-29T04:27:11.505Z,14.60
2019-05-29T04:29:43.497Z,14.60
2019-05-29T04:32:15.013Z,14.60
2019-05-29T04:34:46.181Z,14.60
2019-05-29T04:37:17.371Z,14.50
2019-05-29T04:39:48.935Z,14.50
2019-05-29T04:42:20.537Z,14.40
2019-05-29T04:44:51.928Z,14.40
2019-05-29T04:47:23.600Z,14.40
2019-05-29T04:49:55.412Z,14.30
2019-05-29T04:52:26.853Z,14.30
2019-05-29T04:54:58.340Z,14.30
2019-05-29T04:57:30.747Z,14.30
2019-05-29T05:00:04.904Z,14.30
2019-05-29T05:02:37.286Z,14.30
2019-05-29T05:05:08.970Z,14.20
2019-05-29T05:07:40.762Z,14.20
2019-05-29T05:10:15.847Z,14.20
2019-05-29T05:12:47.445Z,14.20
2019-05-29T05:15:18.689Z,14.10
2019-05-29T05:17:50.493Z,14.10
2019-05-29T05:20:21.995Z,14.10
2019-05-29T05:22:53.427Z,14.10
2019-05-29T05:25:25.344Z,14.10
2019-05-29T05:27:56.828Z,14.10
2019-05-29T05:30:28.306Z,14.10
2019-05-29T05:32:59.653Z,14.10
2019-05-29T05:35:32.333Z,14.10
2019-05-29T05:38:03.925Z,14.10
2019-05-29T05:40:38.516Z,14.10
2019-05-29T05:43:23.215Z,14.20
2019-05-29T05:45:41.949Z,14.20
2019-05-29T05:48:13.434Z,14.20
2019-05-29T05:50:44.933Z,14.20
2019-05-29T05:53:16.619Z,14.20
2019-05-29T05:55:48.156Z,14.20
2019-05-29T05:58:19.785Z,14.30
2019-05-29T06:00:51.251Z,14.20
2019-05-29T06:03:22.832Z,14.20
2019-05-29T06:05:54.398Z,14.30
2019-05-29T06:08:25.685Z,14.20
2019-05-29T06:10:57.184Z,14.20
2019-05-29T06:13:28.607Z,14.20
2019-05-29T06:16:00.167Z,14.20
2019-05-29T06:18:32.364Z,14.20
2019-05-29T06:21:04.166Z,14.10
2019-05-29T06:23:36.949Z,14.00
2019-05-29T06:26:08.729Z,14.00
2019-05-29T06:28:41.268Z,14.00
2019-05-29T06:31:12.862Z,13.90
2019-05-29T06:33:44.260Z,13.90
2019-05-29T06:36:16.087Z,13.90
2019-05-29T06:38:47.395Z,13.90
2019-05-29T06:41:19.222Z,13.90
2019-05-29T06:43:50.923Z,13.90
2019-05-29T06:46:22.318Z,13.90
2019-05-29T06:49:00.489Z,14.00
2019-05-29T06:51:26.822Z,14.00
2019-05-29T06:53:58.565Z,14.00
2019-05-29T06:56:29.881Z,14.00
2019-05-29T06:59:01.452Z,14.00
2019-05-29T07:01:33.026Z,14.00
2019-05-29T07:04:11.813Z,14.00
2019-05-29T07:06:38.985Z,14.00
2019-05-29T07:09:10.411Z,14.10
2019-05-29T07:11:41.837Z,14.00
2019-05-29T07:14:13.475Z,14.10
2019-05-29T07:16:55.111Z,14.10
2019-05-29T07:19:25.777Z,14.10
2019-05-29T07:21:51.743Z,14.10
2019-05-29T07:24:23.075Z,14.20
2019-05-29T07:26:54.714Z,14.20
2019-05-29T07:29:27.232Z,14.30
2019-05-29T07:31:59.029Z,14.30
2019-05-29T07:34:30.329Z,14.30
2019-05-29T07:37:01.598Z,14.30
2019-05-29T07:39:33.051Z,14.20
2019-05-29T07:42:04.646Z,14.20
2019-05-29T07:44:36.241Z,14.10
2019-05-29T07:47:09.884Z,14.10
2019-05-29T07:49:43.505Z,14.10
2019-05-29T07:52:14.204Z,14.10
2019-05-29T07:54:45.836Z,14.00
2019-05-29T07:57:17.530Z,14.00
2019-05-29T07:59:49.147Z,14.00
2019-05-29T08:02:20.605Z,14.00
2019-05-29T08:04:52.323Z,14.00
2019-05-29T08:07:23.802Z,13.90
2019-05-29T08:09:55.361Z,13.90
2019-05-29T08:12:26.833Z,13.90
2019-05-29T08:14:59.914Z,13.80
2019-05-29T08:17:31.298Z,13.80
2019-05-29T08:20:07.624Z,13.80
2019-05-29T08:22:38.005Z,13.80
2019-05-29T08:25:09.590Z,13.80
2019-05-29T08:27:40.876Z,13.80
2019-05-29T08:30:12.364Z,13.70
2019-05-29T08:32:44.038Z,13.70
2019-05-29T08:35:16.743Z,13.80
2019-05-29T08:37:49.144Z,13.90
2019-05-29T08:40:20.746Z,13.90
2019-05-29T08:42:52.072Z,14.00
2019-05-29T08:45:24.822Z,14.00
2019-05-29T08:47:56.095Z,14.00
2019-05-29T08:50:27.682Z,14.10
2019-05-29T08:53:02.433Z,14.20
2019-05-29T08:55:32.561Z,14.20
2019-05-29T08:58:03.996Z,14.30
2019-05-29T09:00:35.278Z,14.40
2019-05-29T09:03:06.661Z,14.50
2019-05-29T09:05:38.336Z,14.60
2019-05-29T09:08:10.011Z,14.60
2019-05-29T09:10:41.430Z,14.70
2019-05-29T09:13:12.814Z,14.70
2019-05-29T09:15:44.122Z,14.70
2019-05-29T09:18:15.568Z,14.70
2019-05-29T09:21:01.967Z,14.70
2019-05-29T09:23:20.907Z,14.80
2019-05-29T09:25:52.486Z,14.80
2019-05-29T09:28:23.976Z,14.80
2019-05-29T09:30:55.451Z,14.80
2019-05-29T09:33:26.808Z,14.90
2019-05-29T09:35:58.884Z,15.00
2019-05-29T09:38:30.437Z,15.10
2019-05-29T09:41:01.882Z,15.10
2019-05-29T09:43:33.429Z,15.20
2019-05-29T09:46:05.229Z,15.10
2019-05-29T09:48:49.241Z,15.20
2019-05-29T09:51:20.769Z,15.20
2019-05-29T09:53:43.528Z,15.20
2019-05-29T09:56:17.059Z,15.30
2019-05-29T09:58:48.433Z,15.30
2019-05-29T10:01:23.852Z,15.40
2019-05-29T10:03:59.673Z,15.40
2019-05-29T10:06:30.778Z,15.40
2019-05-29T10:09:05.419Z,15.50
2019-05-29T10:11:36.863Z,15.60
2019-05-29T10:14:08.464Z,15.70
2019-05-29T10:16:40.180Z,15.80
2019-05-29T10:19:11.808Z,15.90
2019-05-29T10:21:43.591Z,15.90
2019-05-29T10:24:15.104Z,15.90
2019-05-29T10:26:46.408Z,15.90
2019-05-29T10:29:18.108Z,16.00
2019-05-29T10:31:51.098Z,15.90
2019-05-29T10:34:22.889Z,16.00
2019-05-29T10:36:54.930Z,16.00
2019-05-29T10:39:26.492Z,15.90
2019-05-29T10:41:58.239Z,15.80
2019-05-29T10:44:29.684Z,15.70
2019-05-29T10:47:01.461Z,15.60
2019-05-29T10:49:32.947Z,15.60
2019-05-29T10:52:14.538Z,15.70
2019-05-29T10:54:39.291Z,15.70
2019-05-29T10:57:11.056Z,15.80
2019-05-29T10:59:42.328Z,15.90
2019-05-29T11:02:14.020Z,15.90
2019-05-29T11:04:50.351Z,15.90
2019-05-29T11:07:18.971Z,15.90
2019-05-29T11:09:50.497Z,16.00
2019-05-29T11:12:22.065Z,16.20
2019-05-29T11:14:54.940Z,16.50
2019-05-29T11:17:26.890Z,16.80
2019-05-29T11:19:58.394Z,16.90
2019-05-29T11:22:29.820Z,17.00
2019-05-29T11:25:21.101Z,17.00
2019-05-29T11:27:35.061Z,17.00
2019-05-29T11:30:08.416Z,17.00
2019-05-29T11:32:39.928Z,17.00
2019-05-29T11:35:12.242Z,17.10
2019-05-29T11:37:43.608Z,17.10
2019-05-29T11:40:15.987Z,17.20
2019-05-29T11:42:47.397Z,17.40
2019-05-29T11:45:19.309Z,17.50
2019-05-29T11:47:51.526Z,17.60
2019-05-29T11:50:23.522Z,17.70
2019-05-29T11:52:56.239Z,17.70
2019-05-29T11:55:28.029Z,17.60
2019-05-29T11:58:00.038Z,17.50
2019-05-29T12:00:31.955Z,17.60
2019-05-29T12:03:04.947Z,17.60
2019-05-29T12:05:36.342Z,17.60
2019-05-29T12:08:07.766Z,17.70
2019-05-29T12:10:39.341Z,17.80
2019-05-29T12:13:11.116Z,18.00
2019-05-29T12:15:42.685Z,18.20
2019-05-29T12:18:23.572Z,18.60
2019-05-29T12:20:48.132Z,18.90
2019-05-29T12:23:26.418Z,19.20
2019-05-29T12:26:13.935Z,19.40
2019-05-29T12:28:27.777Z,19.70
2019-05-29T12:31:01.370Z,20.00
2019-05-29T12:33:33.136Z,20.00
2019-05-29T12:36:04.833Z,20.10
2019-05-29T12:38:36.503Z,20.20
2019-05-29T12:41:07.941Z,20.40
2019-05-29T12:43:39.976Z,20.50
2019-05-29T12:46:11.251Z,20.50
2019-05-29T12:48:42.754Z,20.60
2019-05-29T12:51:15.595Z,20.70
2019-05-29T12:53:47.591Z,21.00
2019-05-29T12:56:19.294Z,21.30
2019-05-29T12:58:51.186Z,21.50
2019-05-29T13:01:23.786Z,21.60
2019-05-29T13:03:56.642Z,21.50
2019-05-29T13:06:28.483Z,21.30
2019-05-29T13:09:00.510Z,21.20
2019-05-29T13:11:31.974Z,21.20
2019-05-29T13:14:04.708Z,21.30
2019-05-29T13:16:36.434Z,21.20
2019-05-29T13:19:07.748Z,21.10
2019-05-29T13:21:39.075Z,21.00
2019-05-29T13:24:11.744Z,20.90
2019-05-29T13:26:43.382Z,21.00
2019-05-29T13:29:14.825Z,21.10
2019-05-29T13:31:46.234Z,21.20
2019-05-29T13:34:17.639Z,21.30
2019-05-29T13:36:49.140Z,21.40
2019-05-29T13:39:21.708Z,21.50
2019-05-29T13:41:53.106Z,21.50
2019-05-29T13:44:24.867Z,21.40
2019-05-29T13:46:57.707Z,21.40
2019-05-29T13:49:29.127Z,21.50
2019-05-29T13:52:02.232Z,21.50
2019-05-29T13:54:33.754Z,21.70
2019-05-29T13:57:06.814Z,21.90
2019-05-29T13:59:39.367Z,22.10
2019-05-29T14:02:11.006Z,22.20
2019-05-29T14:04:42.570Z,22.20
2019-05-29T14:07:14.007Z,22.10
2019-05-29T14:09:45.314Z,22.00
2019-05-29T14:12:16.847Z,22.00
2019-05-29T14:14:48.140Z,21.90
2019-05-29T14:17:19.937Z,21.70
2019-05-29T14:19:51.408Z,21.40
2019-05-29T14:22:22.818Z,21.10
2019-05-29T14:24:54.387Z,21.10
2019-05-29T14:27:25.579Z,21.10
2019-05-29T14:29:57.303Z,21.00
2019-05-29T14:32:28.990Z,20.90
2019-05-29T14:35:00.264Z,20.80
2019-05-29T14:37:31.812Z,20.80
2019-05-29T14:40:08.023Z,20.80
2019-05-29T14:42:40.868Z,20.80
2019-05-29T14:45:14.169Z,20.50
2019-05-29T14:47:45.688Z,20.20
2019-05-29T14:50:19.337Z,20.00
2019-05-29T14:52:50.969Z,19.90
2019-05-29T14:55:22.380Z,19.90
2019-05-29T14:57:53.664Z,19.90
2019-05-29T15:00:25.814Z,20.00
2019-05-29T15:02:57.385Z,20.10
2019-05-29T15:05:28.717Z,20.00
2019-05-29T15:07:59.953Z,20.00
2019-05-29T15:10:31.196Z,20.00
2019-05-29T15:13:04.207Z,20.00
2019-05-29T15:15:36.305Z,19.90
2019-05-29T15:18:08.834Z,19.90
2019-05-29T15:20:41.177Z,19.80
2019-05-29T15:23:13.494Z,19.80
2019-05-29T15:25:44.975Z,19.70
2019-05-29T15:28:17.983Z,19.60
2019-05-29T15:30:49.481Z,19.50
2019-05-29T15:33:20.793Z,19.50
2019-05-29T15:35:52.722Z,19.40
2019-05-29T15:38:24.161Z,19.30
2019-05-29T15:40:55.608Z,19.20
2019-05-29T15:43:26.981Z,19.20
2019-05-29T15:45:58.341Z,19.10
2019-05-29T15:48:29.909Z,19.00
2019-05-29T15:51:01.404Z,19.00
2019-05-29T15:53:32.667Z,19.00
2019-05-29T15:56:20.207Z,19.00
2019-05-29T15:58:37.137Z,19.00
2019-05-29T16:01:09.661Z,19.00
2019-05-29T16:03:41.594Z,19.00
2019-05-29T16:06:13.873Z,19.00
2019-05-29T16:08:45.439Z,18.90
2019-05-29T16:11:16.885Z,18.90
2019-05-29T16:13:48.486Z,18.80
2019-05-29T16:16:19.742Z,18.80
2019-05-29T16:18:53.388Z,18.70
2019-05-29T16:21:24.683Z,18.70
2019-05-29T16:23:58.337Z,18.70
2019-05-29T16:26:29.735Z,18.70
2019-05-29T16:29:01.034Z,18.60
2019-05-29T16:31:32.640Z,18.60
2019-05-29T16:34:04.131Z,18.60
2019-05-29T16:36:35.775Z,18.60
2019-05-29T16:39:07.164Z,18.50
2019-05-29T16:41:38.927Z,18.40
2019-05-29T16:44:11.913Z,18.40
2019-05-29T16:46:43.453Z,18.30
2019-05-29T16:49:16.541Z,18.20
2019-05-29T16:51:47.982Z,18.20
2019-05-29T16:54:19.265Z,18.20
2019-05-29T16:56:50.505Z,18.10
2019-05-29T16:59:24.953Z,18.10
2019-05-29T17:01:56.154Z,18.10
2019-05-29T17:04:27.700Z,18.10
2019-05-29T17:06:59.070Z,18.10
2019-05-29T17:09:30.372Z,18.10
2019-05-29T17:12:01.922Z,18.10
2019-05-29T17:14:33.224Z,18.10
2019-05-29T17:17:04.807Z,18.00
2019-05-29T17:19:36.092Z,18.00
2019-05-29T17:22:07.681Z,17.90
2019-05-29T17:24:39.222Z,17.90
2019-05-29T17:27:10.556Z,17.90
2019-05-29T17:29:42.108Z,17.90
2019-05-29T17:32:14.680Z,17.80
2019-05-29T17:34:46.429Z,17.80
2019-05-29T17:37:19.035Z,17.70
2019-05-29T17:39:51.167Z,17.70
2019-05-29T17:42:22.939Z,17.60
2019-05-29T17:44:54.331Z,17.60
2019-05-29T17:47:25.795Z,17.50
2019-05-29T17:49:57.365Z,17.50
2019-05-29T17:52:28.881Z,17.40
2019-05-29T17:55:00.152Z,17.30
2019-05-29T17:57:31.573Z,17.20
2019-05-29T18:00:08.911Z,17.20
2019-05-29T18:02:51.569Z,17.10
2019-05-29T18:05:16.419Z,17.10
2019-05-29T18:07:49.063Z,17.00
2019-05-29T18:10:22.155Z,16.90
2019-05-29T18:12:53.960Z,16.80
2019-05-29T18:15:25.698Z,16.80
2019-05-29T18:17:57.381Z,16.70
2019-05-29T18:20:29.659Z,16.60
2019-05-29T18:23:00.914Z,16.50
2019-05-29T18:25:32.808Z,16.50
2019-05-29T18:28:04.054Z,16.40
2019-05-29T18:30:35.370Z,16.40
2019-05-29T18:33:08.129Z,16.30
2019-05-29T18:35:39.527Z,16.20
2019-05-29T18:38:10.822Z,16.10
2019-05-29T18:40:42.325Z,16.00
2019-05-29T18:43:16.698Z,15.90
2019-05-29T18:45:47.989Z,15.80
2019-05-29T18:48:19.163Z,15.70
2019-05-29T18:50:50.432Z,15.60
2019-05-29T18:53:22.714Z,15.60
2019-05-29T18:55:54.178Z,15.50
2019-05-29T18:58:26.001Z,15.40
2019-05-29T19:00:57.804Z,15.30
2019-05-29T19:03:29.591Z,15.20
2019-05-29T19:06:01.116Z,15.10
2019-05-29T19:08:32.716Z,15.10
2019-05-29T19:11:04.300Z,14.90
2019-05-29T19:13:35.680Z,14.90
2019-05-29T19:16:07.541Z,14.70
2019-05-29T19:18:38.856Z,14.70
2019-05-29T19:21:10.106Z,14.50
2019-05-29T19:23:45.266Z,14.40
2019-05-29T19:26:16.556Z,14.30
2019-05-29T19:28:48.945Z,14.20
2019-05-29T19:31:20.244Z,14.00
2019-05-29T19:33:51.778Z,14.00
2019-05-29T19:36:23.619Z,13.80
2019-05-29T19:38:55.304Z,13.70
2019-05-29T19:41:27.838Z,13.60
2019-05-29T19:43:59.406Z,13.50
2019-05-29T19:46:31.374Z,13.50
2019-05-29T19:49:03.464Z,13.40
2019-05-29T19:51:35.453Z,13.30
2019-05-29T19:54:06.970Z,13.20
2019-05-29T19:56:38.286Z,13.10
2019-05-29T19:59:09.595Z,13.00
2019-05-29T20:01:40.985Z,13.00
2019-05-29T20:04:12.263Z,12.90
2019-05-29T20:06:44.203Z,12.90
2019-05-29T20:09:15.411Z,12.80
2019-05-29T20:11:46.724Z,12.70
2019-05-29T20:14:18.133Z,12.70
2019-05-29T20:16:49.518Z,12.60
2019-05-29T20:19:20.721Z,12.60
2019-05-29T20:21:52.055Z,12.50
2019-05-29T20:24:23.262Z,12.50
2019-05-29T20:26:55.082Z,12.40
2019-05-29T20:29:26.517Z,12.40
2019-05-29T20:31:57.838Z,12.30
2019-05-29T20:34:29.036Z,12.30
2019-05-29T20:37:00.206Z,12.20
2019-05-29T20:39:32.823Z,12.10
2019-05-29T20:42:04.452Z,12.10
2019-05-29T20:44:36.692Z,12.00
2019-05-29T20:47:08.185Z,12.00
2019-05-29T20:49:40.453Z,11.90
2019-05-29T20:52:11.853Z,11.90
2019-05-29T20:54:43.207Z,11.80
2019-05-29T20:57:14.608Z,11.80
2019-05-29T20:59:46.070Z,11.80
2019-05-29T21:02:17.339Z,11.70
2019-05-29T21:04:48.669Z,11.70
2019-05-29T21:07:19.927Z,11.60
2019-05-29T21:09:51.214Z,11.50
2019-05-29T21:12:22.461Z,11.50
2019-05-29T21:14:53.761Z,11.50
2019-05-29T21:17:25.038Z,11.40
2019-05-29T21:19:56.382Z,11.40
2019-05-29T21:22:29.017Z,11.30
2019-05-29T21:25:06.774Z,11.20
2019-05-29T21:27:34.996Z,11.20
2019-05-29T21:30:07.222Z,11.10
2019-05-29T21:32:40.022Z,11.10
2019-05-29T21:35:11.896Z,11.00
2019-05-29T21:37:44.322Z,10.90
2019-05-29T21:40:16.048Z,10.90
2019-05-29T21:42:47.450Z,10.80
2019-05-29T21:45:19.451Z,10.80
2019-05-29T21:47:50.951Z,10.70
2019-05-29T21:50:22.218Z,10.70
2019-05-29T21:52:53.631Z,10.60
2019-05-29T21:55:25.119Z,10.60
2019-05-29T21:57:56.406Z,10.50
2019-05-29T22:00:32.505Z,10.50
2019-05-29T22:03:04.172Z,10.50
2019-05-29T22:05:35.523Z,10.50
2019-05-29T22:08:06.829Z,10.40
2019-05-29T22:10:38.366Z,10.30
2019-05-29T22:13:09.637Z,10.30
2019-05-29T22:15:40.960Z,10.20
2019-05-29T22:18:12.817Z,10.20
2019-05-29T22:20:44.083Z,10.10
2019-05-29T22:23:15.400Z,10.10
2019-05-29T22:25:46.960Z,10.10
2019-05-29T22:28:18.305Z,10.00
2019-05-29T22:30:51.295Z,10.00
2019-05-29T22:33:23.052Z,9.90
2019-05-29T22:35:55.670Z,9.90
2019-05-29T22:38:27.125Z,9.90
2019-05-29T22:40:59.613Z,9.80
2019-05-29T22:43:31.413Z,9.80
2019-05-29T22:46:03.306Z,9.70
2019-05-29T22:48:34.514Z,9.70
2019-05-29T22:51:05.851Z,9.60
2019-05-29T22:53:37.159Z,9.60
2019-05-29T22:56:08.628Z,9.50
2019-05-29T22:58:39.928Z,9.50
2019-05-29T23:01:11.145Z,9.40
2019-05-29T23:03:42.336Z,9.30
2019-05-29T23:06:13.605Z,9.30
2019-05-29T23:08:44.838Z,9.20
2019-05-29T23:11:16.585Z,9.20
2019-05-29T23:13:48.065Z,9.10
2019-05-29T23:16:19.713Z,9.10
2019-05-29T23:18:52.319Z,9.00
2019-05-29T23:21:24.000Z,9.00
2019-05-29T23:23:55.405Z,8.90
2019-05-29T23:26:26.794Z,8.90
2019-05-29T23:28:59.278Z,8.80
2019-05-29T23:31:30.893Z,8.80
2019-05-29T23:34:03.307Z,8.70
2019-05-29T23:36:34.637Z,8.70
2019-05-29T23:39:05.817Z,8.60
2019-05-29T23:41:37.065Z,8.60
2019-05-29T23:44:08.353Z,8.50
2019-05-29T23:46:39.650Z,8.50
2019-05-29T23:49:10.964Z,8.50
2019-05-29T23:51:42.353Z,8.40
2019-05-29T23:54:13.598Z,8.40
2019-05-29T23:56:44.852Z,8.40
2019-05-29T23:59:16.463Z,8.40
